Aeroporto :
LOGIN :

Iscrizione | Disclaimer

   EN    FR    IT 

 










Sommario :    VFR   VFR Marginale   IFR   IFR Intensivo   IFR Molto Intensivo
Visibilità : 
Base nubi : 
>= 8 km
>= 3000ft
5 / 8 km
1000 / 3000 ft
1500m / 5 km
500 / 1000 ft
800 / 1500m
200 / 500 ft
< 800m
< 200 ft
Simboli :   Temporali  Nebbia  Neve Forte  Precipitazioni Forti  Vento > 20 kt
SIGMETs :   Varie  Temporali  Ghiacco  Turbolenza  Onda orograficha  Ceneri Vulcaniche







- Altitudine del aeroporto : 1306 ft
- Codice IATA : ACH


LSZR - Alten Rhein

ULTIMO METAR :
  • 260320Z AUTO VRB01KT 8000 BKN022 BKN170 11/11 Q1017

METARs OBSOLETI :
  • 260250Z AUTO 11002KT 7000 BKN018 SCT070 BKN180 11/11 Q1017
  • 260220Z AUTO 10003KT 6000 SCT018 BKN050 OVC070 11/11 Q1017
  • 260150Z AUTO 11002KT 6000 BKN050 BKN070 11/11 Q1017
  • 260120Z AUTO 19001KT 9000 OVC050 11/11 Q1017
  • 260050Z AUTO VRB01KT 9999 BKN060 BKN070 11/11 Q1017

Previsioni scadute.
ATIS : +41 71 858 51 66
Nessun NOTAM noto per questo aeroporto.
3 SIGMETs conosciuti per la FIR Switzerland (LSAS) :
 
Turbolenza severa
LSAS SIGMET 3 VALID 260342/260500 LSZH
LSAS SWITZERLAND FIR SEV TURB FCST W OF LINE N4604 E00638 - N4738 E00743 FL200/300 STNR NC=
Turbolenza severa
LSAS SIGMET 2 VALID 260330/260500 LSZH
LSAS SWITZERLAND FIR/UIR SEV TURB FCST WI N4753 E00851 - N4744 E00950 - N4656 E00850 - N4631 E00748 - N4630 E00655 - N4737 E00742 - N4753 E00851 FL240/320 STNR NC=
Turbolenza severa
LSAS SIGMET 1 VALID 260100/260330 LSZH
LSAS SWITZERLAND FIR/UIR SEV TURB FCST WI N4753 E00851 - N4728 E00848 - N4657 E00750 - N4553 E00607 - N4621 E00543 - N4743 E00714 - N4753 E00851 FL220/320 STNR NC=



MetMap, La meteo Aeronautica in un colpo d'occhio ! - Copyright ORBIFLY Dicembre 2007 - Disclaimer

ORBIFLY MET'MAP TEAM :

Programmazione e sviluppo : Alexandra Zaïnal
Concezione e sviluppo : Baudouin d'Aumeries
Co-Programmazione e sviluppo : Marc-Olivier Méhu
Supporto tecnico e logistico : Manuel Goepfert
Aiuto per la traduzione : Arnaldo La Scala

Contatto : metmap@orbifly.com




FONTI E CREDITI :

   NOAA